<?xml version="1.0" encoding="UTF-8" standalone="no" ?>
<gpx xmlns="http://www.topografix.com/GPX/1/1" xmlns:xsi="http://www.w3.org/2001/XMLSchema-instance" xsi:schemaLocation="http://www.topografix.com/GPX/1/1 http://www.topografix.com/GPX/1/1/gpx.xsd" version="1.1" creator="VisuGPX - https://www.visugpx.com">
  <metadata>
    <name>Molliessoulaz-Le Haut du Pré</name>
    <desc><![CDATA[Carte IGN TOP25 : 3432ET - Albertville.
Niveau PD.
Départ de Molliessoulaz.

]]></desc>
  </metadata>
  <trk>
    <name><![CDATA[Molliessoulaz-Le Haut du Pré - PD+]]></name>
    <cmt><![CDATA[Carte IGN TOP25 : 3432ET - Albertville
Départ de Molliessoulaz.]]></cmt>
    <trkseg>
      <trkpt lat="45.70626" lon="6.46386">
        <ele>987</ele>
        <time>2022-02-15T09:20:06.443Z</time>
      </trkpt>
      <trkpt lat="45.70657" lon="6.46245">
        <ele>985</ele>
        <time>2022-02-15T09:24:42.265Z</time>
      </trkpt>
      <trkpt lat="45.70651" lon="6.46149">
        <ele>1001</ele>
        <time>2022-02-15T09:27:44.976Z</time>
      </trkpt>
      <trkpt lat="45.70644" lon="6.46143">
        <ele>1005</ele>
        <time>2022-02-15T09:28:01.028Z</time>
      </trkpt>
      <trkpt lat="45.70648" lon="6.46115">
        <ele>1008</ele>
        <time>2022-02-15T09:28:33.123Z</time>
      </trkpt>
      <trkpt lat="45.70702" lon="6.4601">
        <ele>1012</ele>
        <time>2022-02-15T09:30:49.477Z</time>
      </trkpt>
      <trkpt lat="45.70742" lon="6.45971">
        <ele>1014</ele>
        <time>2022-02-15T09:32:33.134Z</time>
      </trkpt>
      <trkpt lat="45.70746" lon="6.45908">
        <ele>1028</ele>
        <time>2022-02-15T09:34:44.641Z</time>
      </trkpt>
      <trkpt lat="45.7077" lon="6.4582">
        <ele>1043</ele>
        <time>2022-02-15T09:38:10.425Z</time>
      </trkpt>
      <trkpt lat="45.70729" lon="6.4578">
        <ele>1060</ele>
        <time>2022-02-15T09:41:26.437Z</time>
      </trkpt>
      <trkpt lat="45.70694" lon="6.45724">
        <ele>1079</ele>
        <time>2022-02-15T09:44:49.918Z</time>
      </trkpt>
      <trkpt lat="45.70644" lon="6.45703">
        <ele>1096</ele>
        <time>2022-02-15T09:47:53.443Z</time>
      </trkpt>
      <trkpt lat="45.70594" lon="6.45696">
        <ele>1111</ele>
        <time>2022-02-15T09:50:38.299Z</time>
      </trkpt>
      <trkpt lat="45.70564" lon="6.45616">
        <ele>1129</ele>
        <time>2022-02-15T09:54:03.898Z</time>
      </trkpt>
      <trkpt lat="45.70538" lon="6.45511">
        <ele>1152</ele>
        <time>2022-02-15T09:58:34.599Z</time>
      </trkpt>
      <trkpt lat="45.70481" lon="6.45457">
        <ele>1174</ele>
        <time>2022-02-15T10:03:51.535Z</time>
      </trkpt>
      <trkpt lat="45.70399" lon="6.45418">
        <ele>1216</ele>
        <time>2022-02-15T10:12:04.957Z</time>
      </trkpt>
      <trkpt lat="45.70348" lon="6.45365">
        <ele>1250</ele>
        <time>2022-02-15T10:16:55.728Z</time>
      </trkpt>
      <trkpt lat="45.70317" lon="6.45305">
        <ele>1263</ele>
        <time>2022-02-15T10:20:26.852Z</time>
      </trkpt>
      <trkpt lat="45.7026" lon="6.45356">
        <ele>1293</ele>
        <time>2022-02-15T10:25:25.267Z</time>
      </trkpt>
      <trkpt lat="45.7022" lon="6.45402">
        <ele>1310</ele>
        <time>2022-02-15T10:28:06.623Z</time>
      </trkpt>
      <trkpt lat="45.70189" lon="6.4536">
        <ele>1319</ele>
        <time>2022-02-15T10:30:02.957Z</time>
      </trkpt>
      <trkpt lat="45.70135" lon="6.45327">
        <ele>1335</ele>
        <time>2022-02-15T10:34:02.480Z</time>
      </trkpt>
      <trkpt lat="45.70071" lon="6.45336">
        <ele>1363</ele>
        <time>2022-02-15T10:38:49.144Z</time>
      </trkpt>
      <trkpt lat="45.69936" lon="6.45312">
        <ele>1415</ele>
        <time>2022-02-15T10:47:39.818Z</time>
      </trkpt>
      <trkpt lat="45.69863" lon="6.45296">
        <ele>1436</ele>
        <time>2022-02-15T10:51:41.605Z</time>
      </trkpt>
      <trkpt lat="45.69767" lon="6.45297">
        <ele>1464</ele>
        <time>2022-02-15T10:55:51.918Z</time>
      </trkpt>
      <trkpt lat="45.69717" lon="6.45305">
        <ele>1470</ele>
        <time>2022-02-15T10:57:21.867Z</time>
      </trkpt>
      <trkpt lat="45.69655" lon="6.45339">
        <ele>1478</ele>
        <time>2022-02-15T10:59:05.856Z</time>
      </trkpt>
      <trkpt lat="45.69572" lon="6.45373">
        <ele>1481</ele>
        <time>2022-02-15T11:01:39.537Z</time>
      </trkpt>
      <trkpt lat="45.69419" lon="6.45445">
        <ele>1507</ele>
        <time>2022-02-15T11:08:00.303Z</time>
      </trkpt>
      <trkpt lat="45.69273" lon="6.45509">
        <ele>1545</ele>
        <time>2022-02-15T11:15:43.052Z</time>
      </trkpt>
      <trkpt lat="45.69167" lon="6.45574">
        <ele>1579</ele>
        <time>2022-02-15T11:21:22.313Z</time>
      </trkpt>
      <trkpt lat="45.69107" lon="6.45586">
        <ele>1591</ele>
        <time>2022-02-15T11:23:49.483Z</time>
      </trkpt>
      <trkpt lat="45.68872" lon="6.456">
        <ele>1642</ele>
        <time>2022-02-15T11:34:17.695Z</time>
      </trkpt>
      <trkpt lat="45.68821" lon="6.45608">
        <ele>1659</ele>
        <time>2022-02-15T11:37:19.523Z</time>
      </trkpt>
      <trkpt lat="45.68751" lon="6.45603">
        <ele>1680</ele>
        <time>2022-02-15T11:40:42.613Z</time>
      </trkpt>
      <trkpt lat="45.6868" lon="6.45586">
        <ele>1696</ele>
        <time>2022-02-15T11:43:18.145Z</time>
      </trkpt>
      <trkpt lat="45.68624" lon="6.4557">
        <ele>1702</ele>
        <time>2022-02-15T11:44:58.528Z</time>
      </trkpt>
      <trkpt lat="45.68567" lon="6.45534">
        <ele>1710</ele>
        <time>2022-02-15T11:46:35.461Z</time>
      </trkpt>
      <trkpt lat="45.68526" lon="6.455">
        <ele>1710</ele>
        <time>2022-02-15T11:47:41.620Z</time>
      </trkpt>
      <trkpt lat="45.68498" lon="6.45444">
        <ele>1710</ele>
        <time>2022-02-15T11:48:47.665Z</time>
      </trkpt>
      <trkpt lat="45.68475" lon="6.45368">
        <ele>1710</ele>
        <time>2022-02-15T11:50:08.098Z</time>
      </trkpt>
      <trkpt lat="45.68498" lon="6.45444">
        <ele>1710</ele>
        <time>2022-02-15T11:51:28.531Z</time>
      </trkpt>
      <trkpt lat="45.68526" lon="6.455">
        <ele>1710</ele>
        <time>2022-02-15T11:52:34.576Z</time>
      </trkpt>
      <trkpt lat="45.68567" lon="6.45534">
        <ele>1710</ele>
        <time>2022-02-15T11:53:42.298Z</time>
      </trkpt>
      <trkpt lat="45.68624" lon="6.4557">
        <ele>1702</ele>
        <time>2022-02-15T11:55:15.207Z</time>
      </trkpt>
      <trkpt lat="45.6868" lon="6.45586">
        <ele>1696</ele>
        <time>2022-02-15T11:56:49.563Z</time>
      </trkpt>
      <trkpt lat="45.68751" lon="6.45603">
        <ele>1680</ele>
        <time>2022-02-15T11:59:24.771Z</time>
      </trkpt>
      <trkpt lat="45.68821" lon="6.45608">
        <ele>1659</ele>
        <time>2022-02-15T12:02:19.471Z</time>
      </trkpt>
      <trkpt lat="45.68872" lon="6.456">
        <ele>1642</ele>
        <time>2022-02-15T12:04:02.731Z</time>
      </trkpt>
      <trkpt lat="45.69107" lon="6.45586">
        <ele>1591</ele>
        <time>2022-02-15T12:11:27.612Z</time>
      </trkpt>
      <trkpt lat="45.69167" lon="6.45574">
        <ele>1579</ele>
        <time>2022-02-15T12:13:37.084Z</time>
      </trkpt>
      <trkpt lat="45.69273" lon="6.45509">
        <ele>1545</ele>
        <time>2022-02-15T12:17:47.175Z</time>
      </trkpt>
      <trkpt lat="45.69419" lon="6.45445">
        <ele>1507</ele>
        <time>2022-02-15T12:22:29.715Z</time>
      </trkpt>
      <trkpt lat="45.69572" lon="6.45373">
        <ele>1481</ele>
        <time>2022-02-15T12:26:29.868Z</time>
      </trkpt>
      <trkpt lat="45.69655" lon="6.45339">
        <ele>1478</ele>
        <time>2022-02-15T12:28:32.361Z</time>
      </trkpt>
      <trkpt lat="45.69717" lon="6.45305">
        <ele>1470</ele>
        <time>2022-02-15T12:30:12.407Z</time>
      </trkpt>
      <trkpt lat="45.69767" lon="6.45297">
        <ele>1464</ele>
        <time>2022-02-15T12:31:52.812Z</time>
      </trkpt>
      <trkpt lat="45.69863" lon="6.45296">
        <ele>1436</ele>
        <time>2022-02-15T12:35:32.874Z</time>
      </trkpt>
      <trkpt lat="45.69936" lon="6.45312">
        <ele>1415</ele>
        <time>2022-02-15T12:38:59.506Z</time>
      </trkpt>
      <trkpt lat="45.70071" lon="6.45336">
        <ele>1363</ele>
        <time>2022-02-15T12:46:15.656Z</time>
      </trkpt>
      <trkpt lat="45.70135" lon="6.45327">
        <ele>1335</ele>
        <time>2022-02-15T12:49:17.329Z</time>
      </trkpt>
      <trkpt lat="45.70189" lon="6.4536">
        <ele>1319</ele>
        <time>2022-02-15T12:51:20.054Z</time>
      </trkpt>
      <trkpt lat="45.7022" lon="6.45402">
        <ele>1310</ele>
        <time>2022-02-15T12:52:53.401Z</time>
      </trkpt>
      <trkpt lat="45.7026" lon="6.45356">
        <ele>1293</ele>
        <time>2022-02-15T12:55:37.195Z</time>
      </trkpt>
      <trkpt lat="45.70317" lon="6.45305">
        <ele>1263</ele>
        <time>2022-02-15T12:58:51.062Z</time>
      </trkpt>
      <trkpt lat="45.70348" lon="6.45365">
        <ele>1250</ele>
        <time>2022-02-15T13:01:40.292Z</time>
      </trkpt>
      <trkpt lat="45.70399" lon="6.45418">
        <ele>1216</ele>
        <time>2022-02-15T13:05:57.414Z</time>
      </trkpt>
      <trkpt lat="45.70481" lon="6.45457">
        <ele>1174</ele>
        <time>2022-02-15T13:10:44.037Z</time>
      </trkpt>
      <trkpt lat="45.70538" lon="6.45511">
        <ele>1152</ele>
        <time>2022-02-15T13:13:31.538Z</time>
      </trkpt>
      <trkpt lat="45.70564" lon="6.45616">
        <ele>1129</ele>
        <time>2022-02-15T13:16:33.335Z</time>
      </trkpt>
      <trkpt lat="45.70594" lon="6.45696">
        <ele>1111</ele>
        <time>2022-02-15T13:19:00.104Z</time>
      </trkpt>
      <trkpt lat="45.70644" lon="6.45703">
        <ele>1096</ele>
        <time>2022-02-15T13:21:05.597Z</time>
      </trkpt>
      <trkpt lat="45.70694" lon="6.45724">
        <ele>1079</ele>
        <time>2022-02-15T13:23:28.900Z</time>
      </trkpt>
      <trkpt lat="45.70729" lon="6.4578">
        <ele>1060</ele>
        <time>2022-02-15T13:25:57.514Z</time>
      </trkpt>
      <trkpt lat="45.7077" lon="6.4582">
        <ele>1043</ele>
        <time>2022-02-15T13:27:47.309Z</time>
      </trkpt>
      <trkpt lat="45.70746" lon="6.45908">
        <ele>1028</ele>
        <time>2022-02-15T13:30:08.767Z</time>
      </trkpt>
      <trkpt lat="45.70742" lon="6.45971">
        <ele>1014</ele>
        <time>2022-02-15T13:31:23.747Z</time>
      </trkpt>
      <trkpt lat="45.70702" lon="6.4601">
        <ele>1012</ele>
        <time>2022-02-15T13:32:30.128Z</time>
      </trkpt>
      <trkpt lat="45.70648" lon="6.46115">
        <ele>1008</ele>
        <time>2022-02-15T13:34:42.866Z</time>
      </trkpt>
      <trkpt lat="45.70644" lon="6.46143">
        <ele>1005</ele>
        <time>2022-02-15T13:35:13.693Z</time>
      </trkpt>
      <trkpt lat="45.70651" lon="6.46149">
        <ele>1001</ele>
        <time>2022-02-15T13:35:30.347Z</time>
      </trkpt>
      <trkpt lat="45.70657" lon="6.46245">
        <ele>985</ele>
        <time>2022-02-15T13:37:06.946Z</time>
      </trkpt>
      <trkpt lat="45.70626" lon="6.46386">
        <ele>987</ele>
        <time>2022-02-15T13:39:34.859Z</time>
      </trkpt>
    </trkseg>
  </trk>
</gpx>